Time;durP1;ratioP1;P1;durP2;ratioP2;P2;SDS_P1;SDS_P2;PMS_P1;PMS_P2;Temp;Humidity;BMP_temperature;BMP_pressure;BME280_temperature;BME280_humidity;BME280_pressure;Samples;Min_cycle;Max_cycle;Signal;HPM_P1;HPM_P2
2021/11/29 00:01:16;;;;;;;1.67;1.17;;;;;;;2.26;67.61;99915.84;6224558;23;20103;-74
2021/11/29 00:03:41;;;;;;;0.90;0.90;;;;;;;2.34;68.11;99929.06;6222712;23;20004;-75
2021/11/29 00:06:24;;;;;;;1.10;1.10;;;;;;;2.19;67.92;99912.38;6198390;23;20076;-75
2021/11/29 00:08:50;;;;;;;1.60;1.50;;;;;;;2.16;67.86;99921.78;6175042;23;20082;-76
2021/11/29 00:11:19;;;;;;;0.93;0.93;;;;;;;2.02;67.78;99912.97;6198526;23;20000;-76
2021/11/29 00:13:47;;;;;;;1.98;1.38;;;;;;;1.82;67.81;99898.84;6175423;23;20004;-75
2021/11/29 00:16:17;;;;;;;0.95;0.95;;;;;;;1.74;67.99;99902.66;6199445;23;20093;-75
2021/11/29 00:18:43;;;;;;;1.52;1.45;;;;;;;1.74;67.54;99916.94;6175229;23;20016;-75
2021/11/29 00:21:11;;;;;;;0.70;0.70;;;;;;;1.66;68.14;99916.41;6202245;23;20032;-75
2021/11/29 00:23:42;;;;;;;2.38;1.60;;;;;;;1.43;68.21;99900.81;6236846;23;20016;-75
2021/11/29 00:26:08;;;;;;;3.15;1.13;;;;;;;1.43;68.94;99907.06;6211381;23;20012;-76
2021/11/29 00:28:39;;;;;;;1.23;1.23;;;;;;;1.41;68.29;99924.47;6213442;23;20013;-75
2021/11/29 00:31:04;;;;;;;1.75;1.60;;;;;;;1.32;68.67;99922.03;6188828;23;20039;-74
2021/11/29 00:33:30;;;;;;;1.52;1.30;;;;;;;1.22;69.38;99913.59;6202945;23;20009;-74
2021/11/29 00:35:55;;;;;;;1.80;1.70;;;;;;;1.17;68.77;99924.22;6199039;23;20016;-75
2021/11/29 00:38:21;;;;;;;1.83;1.73;;;;;;;1.04;69.54;99922.41;6195544;23;20004;-74
2021/11/29 00:40:46;;;;;;;2.33;2.13;;;;;;;1.04;69.61;99928.63;6195243;23;20009;-73
2021/11/29 00:43:12;;;;;;;1.55;1.50;;;;;;;1.00;70.04;99926.59;6165051;23;20017;-71
2021/11/29 00:46:00;;;;;;;1.85;1.50;;;;;;;0.93;69.86;99937.38;6222185;23;20035;-74
2021/11/29 00:48:26;;;;;;;1.70;1.60;;;;;;;0.89;70.12;99940.72;6204944;23;20406;-75
2021/11/29 00:50:56;;;;;;;1.90;1.80;;;;;;;0.82;69.08;99928.13;6221720;23;20000;-73
2021/11/29 00:53:24;;;;;;;1.63;1.52;;;;;;;0.80;69.71;99940.94;6195362;23;20008;-72
2021/11/29 00:55:53;;;;;;;2.55;2.45;;;;;;;0.66;69.95;99928.59;6220687;23;20491;-72
2021/11/29 00:58:21;;;;;;;6.78;2.15;;;;;;;0.69;70.22;99929.00;6195520;23;20008;-72
2021/11/29 01:00:47;;;;;;;2.00;1.90;;;;;;;0.54;71.18;99915.00;6220505;23;19997;-73
2021/11/29 01:03:17;;;;;;;2.85;1.70;;;;;;;0.64;70.30;99941.44;6221964;23;20043;-71
2021/11/29 01:05:43;;;;;;;2.78;2.58;;;;;;;0.58;71.31;99937.72;6222291;23;20020;-72
2021/11/29 01:08:09;;;;;;;2.53;2.33;;;;;;;0.52;70.71;99939.38;6220568;23;20690;-73
2021/11/29 01:10:39;;;;;;;2.78;2.58;;;;;;;0.48;70.99;99938.19;6221318;23;20412;-73
2021/11/29 01:13:07;;;;;;;3.30;3.05;;;;;;;0.50;70.22;99941.47;6195603;23;20083;-73
2021/11/29 01:15:35;;;;;;;2.80;2.70;;;;;;;0.49;70.97;99947.88;6142447;23;20008;-73
2021/11/29 01:18:07;;;;;;;3.42;3.22;;;;;;;0.49;71.34;99937.13;6195459;23;20000;-72
2021/11/29 01:20:36;;;;;;;3.83;3.60;;;;;;;0.63;71.10;99961.31;6193587;23;20072;-73
2021/11/29 01:23:05;;;;;;;4.93;4.63;;;;;;;0.73;71.54;99950.94;6222022;23;20017;-74
2021/11/29 01:25:32;;;;;;;4.40;4.05;;;;;;;0.83;71.15;99954.00;6194608;23;20012;-74
2021/11/29 01:28:00;;;;;;;4.13;3.92;;;;;;;0.77;70.95;99929.78;6192648;23;20416;-74
2021/11/29 01:30:25;;;;;;;4.75;4.35;;;;;;;0.99;71.15;99960.78;6194043;23;20426;-74
2021/11/29 01:32:51;;;;;;;5.13;4.82;;;;;;;0.96;70.97;99944.19;6218377;23;20036;-73
2021/11/29 01:35:17;;;;;;;4.75;4.45;;;;;;;1.03;71.21;99945.00;6194264;23;20020;-72
2021/11/29 01:37:42;;;;;;;6.05;5.13;;;;;;;1.19;71.94;99949.88;6220004;23;20008;-74
2021/11/29 01:40:09;;;;;;;5.35;4.93;;;;;;;1.23;71.27;99955.66;6218923;23;20009;-73
2021/11/29 01:42:56;;;;;;;5.05;4.65;;;;;;;1.24;71.55;99956.47;6220670;23;20004;-72
2021/11/29 01:45:21;;;;;;;7.53;6.22;;;;;;;1.08;70.97;99941.66;6194000;23;20023;-71
2021/11/29 01:47:47;;;;;;;10.73;6.97;;;;;;;1.14;70.77;99968.56;6220492;23;20071;-73
2021/11/29 01:50:12;;;;;;;7.63;6.95;;;;;;;0.93;71.64;99945.44;6221612;23;20009;-73
2021/11/29 01:52:38;;;;;;;6.38;5.95;;;;;;;0.94;71.05;99959.75;6221637;23;20032;-72
2021/11/29 01:55:04;;;;;;;7.28;6.60;;;;;;;0.82;71.35;99964.97;6219189;23;20005;-71
2021/11/29 01:57:30;;;;;;;7.25;6.45;;;;;;;0.58;71.63;99942.28;6195761;23;20005;-72
2021/11/29 01:59:55;;;;;;;7.05;5.95;;;;;;;0.56;71.38;99960.53;6191516;23;20118;-73
2021/11/29 02:02:22;;;;;;;6.55;5.60;;;;;;;0.51;70.69;99964.66;6196038;23;20004;-72
2021/11/29 02:04:48;;;;;;;7.53;6.47;;;;;;;0.51;71.56;99967.34;6219034;23;20432;-73
2021/11/29 02:07:13;;;;;;;6.93;6.32;;;;;;;0.48;71.07;99965.09;6192580;23;20005;-72
2021/11/29 02:09:39;;;;;;;7.22;6.50;;;;;;;0.44;71.80;99953.09;6217886;23;20031;-72
2021/11/29 02:12:08;;;;;;;10.32;8.02;;;;;;;0.54;71.73;99968.81;6193713;23;20020;-72
2021/11/29 02:14:36;;;;;;;8.50;6.97;;;;;;;0.57;71.77;99978.28;6193062;23;20012;-73
2021/11/29 02:17:02;;;;;;;8.38;7.53;;;;;;;0.51;72.09;99975.44;6219569;23;20012;-74
2021/11/29 02:19:28;;;;;;;8.20;7.28;;;;;;;0.52;72.41;99982.44;6195833;23;20313;-74
2021/11/29 02:21:53;;;;;;;9.32;7.00;;;;;;;0.60;72.12;99983.25;6220501;23;20008;-74
2021/11/29 02:24:24;;;;;;;10.18;7.03;;;;;;;0.60;71.98;99991.31;6193236;23;20035;-73
2021/11/29 02:26:58;;;;;;;11.60;9.57;;;;;;;0.49;71.94;99993.63;6194598;23;20047;-73
2021/11/29 02:29:34;;;;;;;9.20;8.30;;;;;;;0.62;72.85;100008.09;6176199;23;20012;-75
2021/11/29 02:32:10;;;;;;;;;;;;;;;;;;;;;
2021/11/29 02:37:11;;;;;;;8.60;7.75;;;;;;;0.66;72.55;100015.53;6206021;23;20012;-72
2021/11/29 02:39:41;;;;;;;11.68;8.18;;;;;;;0.74;73.21;100027.94;6198828;23;20001;-74
2021/11/29 02:42:17;;;;;;;6.50;6.00;;;;;;;0.63;73.02;100005.19;6191877;23;20016;-72
2021/11/29 02:44:50;;;;;;;9.02;8.02;;;;;;;0.82;72.58;100018.81;6192875;23;20055;-73
2021/11/29 02:47:15;;;;;;;9.40;8.18;;;;;;;0.84;72.90;100017.56;6192271;23;20005;-73
2021/11/29 02:49:41;;;;;;;10.23;8.02;;;;;;;1.01;73.13;100033.25;6193421;23;20009;-74
2021/11/29 02:52:15;;;;;;;9.80;8.38;;;;;;;1.06;72.73;100038.81;6193561;23;20061;-74
2021/11/29 02:54:45;;;;;;;7.32;6.72;;;;;;;1.11;72.68;100036.31;6194784;23;20428;-74
2021/11/29 02:57:16;;;;;;;8.68;7.80;;;;;;;0.96;72.26;100019.59;6194505;23;20024;-74
2021/11/29 02:59:46;;;;;;;9.35;8.43;;;;;;;1.17;72.16;100043.53;6169225;23;19997;-74
2021/11/29 03:02:20;;;;;;;7.80;7.07;;;;;;;1.24;72.53;100038.09;6170602;23;20001;-74
2021/11/29 03:04:47;;;;;;;7.93;7.30;;;;;;;1.29;72.19;100040.19;6196254;23;20005;-74
2021/11/29 03:07:13;;;;;;;10.68;8.38;;;;;;;1.27;72.86;100036.88;6195200;23;20011;-74
2021/11/29 03:09:40;;;;;;;9.45;7.07;;;;;;;1.18;72.70;100034.44;6168646;23;20424;-73
2021/11/29 03:12:06;;;;;;;8.13;7.30;;;;;;;1.21;73.00;100038.53;6171838;23;20063;-74
2021/11/29 03:14:39;;;;;;;8.07;7.47;;;;;;;1.18;72.63;100045.22;6195308;23;19997;-75
2021/11/29 03:17:05;;;;;;;8.45;7.75;;;;;;;1.25;72.50;100050.56;6168433;23;20016;-74
2021/11/29 03:19:36;;;;;;;7.28;6.57;;;;;;;1.28;72.96;100052.00;6196655;23;20008;-76
2021/11/29 03:22:05;;;;;;;8.45;7.65;;;;;;;1.21;73.10;100034.00;6196799;23;20016;-75
2021/11/29 03:24:31;;;;;;;8.25;7.45;;;;;;;1.33;73.14;100062.94;6196127;23;20032;-75
2021/11/29 03:27:07;;;;;;;7.20;6.05;;;;;;;1.27;73.00;100047.63;6164229;23;20096;-74
2021/11/29 03:29:32;;;;;;;6.53;6.07;;;;;;;1.44;73.03;100064.97;6167352;23;20016;-75
2021/11/29 03:32:02;;;;;;;6.50;5.85;;;;;;;1.48;72.13;100066.19;6186356;23;20013;-74
2021/11/29 03:34:32;;;;;;;6.63;6.03;;;;;;;1.52;72.95;100066.59;6168256;23;20305;-75
2021/11/29 03:37:01;;;;;;;5.72;5.22;;;;;;;1.60;72.65;100063.66;6195285;23;20033;-75
2021/11/29 03:39:29;;;;;;;7.20;6.50;;;;;;;1.69;72.70;100066.91;6201058;23;20028;-76
2021/11/29 03:42:04;;;;;;;6.72;6.18;;;;;;;1.77;72.27;100080.16;6174686;23;20008;-77
2021/11/29 03:44:32;;;;;;;10.48;7.15;;;;;;;1.82;72.02;100076.81;6200412;23;20009;-77
2021/11/29 03:47:03;;;;;;;7.18;6.57;;;;;;;1.75;71.98;100071.44;6201156;23;20005;-76
2021/11/29 03:49:29;;;;;;;6.93;6.32;;;;;;;1.87;72.41;100091.28;6174079;23;20001;-77
2021/11/29 03:51:55;;;;;;;6.90;5.95;;;;;;;1.89;71.67;100093.78;6169271;23;20009;-76
2021/11/29 03:54:24;;;;;;;8.32;6.88;;;;;;;1.74;72.01;100075.19;6168926;23;20001;-76
2021/11/29 03:56:50;;;;;;;7.63;5.80;;;;;;;1.83;72.32;100090.06;6166050;23;20456;-76
2021/11/29 03:59:16;;;;;;;9.35;5.72;;;;;;;1.80;71.52;100085.09;6165045;23;20120;-75
2021/11/29 04:01:43;;;;;;;9.05;5.88;;;;;;;1.90;71.52;100107.03;6165476;23;20005;-75
2021/11/29 04:04:09;;;;;;;6.63;6.03;;;;;;;1.88;72.18;100117.22;6192384;23;20005;-75
2021/11/29 04:06:35;;;;;;;6.00;5.47;;;;;;;1.88;71.64;100111.84;6194071;23;20001;-74
2021/11/29 04:09:03;;;;;;;6.28;5.82;;;;;;;1.89;71.63;100116.16;6193522;23;20005;-75
2021/11/29 04:11:29;;;;;;;5.78;5.28;;;;;;;1.89;71.84;100126.94;6166180;23;20016;-75
2021/11/29 04:13:55;;;;;;;5.50;5.18;;;;;;;1.93;72.04;100127.34;6193142;23;20128;-75
2021/11/29 04:16:20;;;;;;;5.65;5.25;;;;;;;1.90;71.40;100117.81;6194707;23;20436;-75
2021/11/29 04:18:47;;;;;;;6.32;5.82;;;;;;;1.84;71.69;100116.00;6194030;23;20005;-76
2021/11/29 04:21:17;;;;;;;6.65;5.38;;;;;;;1.90;71.95;100123.22;6167456;23;20001;-77
2021/11/29 04:23:45;;;;;;;5.93;5.32;;;;;;;1.83;71.25;100117.03;6169183;23;20012;-77
2021/11/29 04:26:21;;;;;;;6.05;5.57;;;;;;;1.82;71.69;100119.94;6167888;23;20005;-74
2021/11/29 04:28:49;;;;;;;6.22;5.15;;;;;;;1.80;71.03;100122.84;6193986;23;20005;-75
2021/11/29 04:31:15;;;;;;;5.45;5.13;;;;;;;1.89;71.08;100142.31;6166384;23;20015;-74
2021/11/29 04:33:40;;;;;;;4.80;4.60;;;;;;;1.95;70.77;100146.00;6192006;23;20025;-74
2021/11/29 04:36:06;;;;;;;3.85;3.55;;;;;;;1.94;71.60;100128.16;6193837;23;20436;-75
2021/11/29 04:38:40;;;;;;;3.92;3.70;;;;;;;1.97;70.73;100130.44;6192106;23;20001;-75
2021/11/29 04:41:05;;;;;;;2.90;2.70;;;;;;;2.00;70.51;100124.59;6191414;23;20001;-74
2021/11/29 04:43:36;;;;;;;3.20;3.00;;;;;;;2.10;71.13;100127.66;6141458;23;20017;-77
2021/11/29 04:46:02;;;;;;;4.18;3.88;;;;;;;2.18;70.88;100131.97;6142167;23;20009;-78
2021/11/29 04:48:27;;;;;;;4.50;4.25;;;;;;;2.08;70.39;100118.97;6193513;23;20040;-78
2021/11/29 04:50:53;;;;;;;3.42;3.22;;;;;;;2.23;70.79;100138.38;6141102;23;20025;-76
2021/11/29 04:53:19;;;;;;;5.88;5.15;;;;;;;2.19;70.69;100137.16;6165729;23;20008;-73
2021/11/29 04:55:59;;;;;;;4.53;4.30;;;;;;;2.19;70.18;100137.16;6192680;23;20342;-76
2021/11/29 04:58:27;;;;;;;4.45;4.18;;;;;;;2.18;70.58;100140.88;6143005;23;20009;-74
2021/11/29 05:01:00;;;;;;;4.90;3.95;;;;;;;2.17;70.16;100150.00;6167918;23;20005;-76
2021/11/29 05:03:26;;;;;;;5.78;4.90;;;;;;;2.13;69.85;100137.19;6118381;23;20015;-75
2021/11/29 05:05:54;;;;;;;4.72;4.43;;;;;;;2.15;70.59;100140.50;6166723;23;20009;-75
2021/11/29 05:08:19;;;;;;;5.68;4.30;;;;;;;2.20;70.26;100154.16;6167045;23;20498;-77
2021/11/29 05:10:45;;;;;;;4.05;3.85;;;;;;;2.18;70.40;100156.25;6166391;23;20016;-77
2021/11/29 05:13:17;;;;;;;3.58;3.28;;;;;;;2.14;69.77;100150.44;6193394;23;20049;-75
2021/11/29 05:15:43;;;;;;;4.43;4.03;;;;;;;2.23;69.76;100159.97;6192938;23;20012;-75
2021/11/29 05:18:08;;;;;;;3.80;3.50;;;;;;;2.26;70.09;100164.06;6117189;23;20005;-76
2021/11/29 05:20:34;;;;;;;3.78;3.50;;;;;;;2.15;70.10;100141.31;6191643;23;20088;-75
2021/11/29 05:23:02;;;;;;;3.35;3.15;;;;;;;2.26;69.51;100158.69;6166423;23;20012;-76
2021/11/29 05:25:28;;;;;;;4.07;3.88;;;;;;;2.24;69.68;100150.81;6164301;23;20008;-75
2021/11/29 05:28:01;;;;;;;4.07;3.78;;;;;;;2.21;69.39;100156.63;6141352;23;20009;-74
2021/11/29 05:30:30;;;;;;;4.53;4.13;;;;;;;2.19;69.57;100161.44;6165246;23;20005;-75
2021/11/29 05:32:58;;;;;;;3.65;3.33;;;;;;;2.00;68.88;100146.19;6191690;23;20309;-75
2021/11/29 05:35:24;;;;;;;3.67;3.47;;;;;;;1.94;69.45;100144.34;6165283;23;20005;-75
2021/11/29 05:37:50;;;;;;;5.00;4.65;;;;;;;1.98;68.90;100159.06;6193084;23;20416;-74
2021/11/29 05:40:16;;;;;;;5.75;5.35;;;;;;;1.90;69.47;100160.97;6195403;23;20005;-75
2021/11/29 05:42:42;;;;;;;4.90;4.60;;;;;;;1.81;68.82;100173.06;6198843;23;20005;-74
2021/11/29 05:45:11;;;;;;;4.22;4.03;;;;;;;1.77;69.91;100166.44;6174684;23;20088;-74
2021/11/29 05:47:42;;;;;;;3.72;3.42;;;;;;;1.63;69.83;100154.84;6198934;23;20033;-72
2021/11/29 05:50:09;;;;;;;2.90;2.70;;;;;;;1.68;69.82;100167.69;6165220;23;20013;-77
2021/11/29 05:52:36;;;;;;;2.22;2.13;;;;;;;1.53;69.38;100155.34;6118397;23;20012;-76
2021/11/29 05:55:03;;;;;;;4.10;1.95;;;;;;;1.58;69.08;100178.94;6168153;23;20087;-76
2021/11/29 05:57:28;;;;;;;3.17;2.97;;;;;;;1.44;69.30;100166.56;6165424;23;20009;-75
2021/11/29 05:59:54;;;;;;;1.88;1.77;;;;;;;1.33;69.57;100165.31;6166885;23;20001;-76
2021/11/29 06:02:20;;;;;;;2.05;1.95;;;;;;;1.21;69.54;100163.31;6167418;23;20005;-76
2021/11/29 06:04:45;;;;;;;2.50;2.40;;;;;;;1.24;70.04;100182.75;6166540;23;20032;-75
2021/11/29 06:07:10;;;;;;;3.08;2.88;;;;;;;1.13;69.93;100171.59;6166426;23;20047;-76
2021/11/29 06:09:36;;;;;;;2.28;2.08;;;;;;;1.02;70.07;100174.91;6165454;23;20115;-76
2021/11/29 06:12:01;;;;;;;3.83;2.47;;;;;;;1.03;69.33;100184.66;6193164;23;20016;-76
2021/11/29 06:14:27;;;;;;;3.78;3.53;;;;;;;0.92;69.59;100182.59;6191047;23;20420;-75
2021/11/29 06:16:54;;;;;;;5.53;5.03;;;;;;;0.87;70.36;100186.72;6167319;23;20427;-76
2021/11/29 06:19:23;;;;;;;6.00;5.50;;;;;;;0.86;69.62;100190.47;6166971;23;20075;-77
2021/11/29 06:21:48;;;;;;;5.07;4.60;;;;;;;0.79;69.91;100186.13;6167228;23;20013;-76
2021/11/29 06:24:14;;;;;;;3.58;3.38;;;;;;;0.61;70.06;100167.91;6171050;23;20019;-76
2021/11/29 06:26:40;;;;;;;3.10;2.90;;;;;;;0.57;70.12;100180.13;6201619;23;20000;-76
2021/11/29 06:29:06;;;;;;;3.30;3.10;;;;;;;0.60;70.04;100198.53;6150212;23;20065;-77
2021/11/29 06:31:32;;;;;;;4.03;3.83;;;;;;;0.61;70.53;100210.97;6181499;23;20073;-77
2021/11/29 06:33:58;;;;;;;4.70;4.30;;;;;;;0.40;70.59;100193.97;6157009;23;20004;-76
2021/11/29 06:36:30;;;;;;;5.18;4.78;;;;;;;0.35;69.79;100207.19;6144532;23;20028;-75
2021/11/29 06:38:57;;;;;;;4.45;4.15;;;;;;;0.23;69.99;100201.59;6140898;23;20009;-76
2021/11/29 06:41:24;;;;;;;6.60;6.00;;;;;;;0.27;70.41;100223.53;6163227;23;20008;-76
2021/11/29 06:43:50;;;;;;;6.43;5.82;;;;;;;0.21;70.76;100233.25;6163520;23;20088;-76
2021/11/29 06:46:17;;;;;;;5.85;5.15;;;;;;;0.01;71.22;100219.72;6161635;23;20014;-76
2021/11/29 06:48:42;;;;;;;7.57;6.85;;;;;;;0.07;70.61;100248.50;6163188;23;20005;-76
2021/11/29 06:51:15;;;;;;;9.98;7.65;;;;;;;0.04;71.71;100253.44;6159438;23;20017;-76
2021/11/29 06:53:42;;;;;;;11.88;7.72;;;;;;;-0.07;71.73;100241.44;6137864;23;20025;-77
2021/11/29 06:56:07;;;;;;;8.02;6.80;;;;;;;-0.14;72.04;100246.75;6134964;23;20088;-77
2021/11/29 06:58:33;;;;;;;6.68;6.07;;;;;;;-0.05;72.52;100266.25;6163643;23;20020;-76
2021/11/29 07:00:59;;;;;;;7.68;7.03;;;;;;;-0.11;71.51;100261.66;6164098;23;20067;-77
2021/11/29 07:03:25;;;;;;;7.82;7.15;;;;;;;-0.24;71.79;100236.38;6138039;23;20010;-76
2021/11/29 07:05:51;;;;;;;6.65;6.15;;;;;;;-0.20;72.87;100245.69;6163936;23;20001;-76
2021/11/29 07:08:18;;;;;;;6.75;6.15;;;;;;;-0.09;73.16;100256.91;6163933;23;20440;-75
2021/11/29 07:10:46;;;;;;;7.90;7.18;;;;;;;-0.08;72.03;100261.28;6138096;23;20009;-79
2021/11/29 07:13:16;;;;;;;11.82;8.30;;;;;;;-0.07;72.69;100257.56;6168512;23;20491;-78
2021/11/29 07:15:42;;;;;;;12.88;7.95;;;;;;;0.01;72.60;100267.31;6168882;23;20037;-74
2021/11/29 07:18:08;;;;;;;7.57;6.50;;;;;;;-0.05;72.87;100255.50;6166166;23;20065;-75
2021/11/29 07:20:34;;;;;;;8.48;7.55;;;;;;;0.05;72.08;100272.06;6165324;23;20001;-75
2021/11/29 07:23:00;;;;;;;9.27;8.07;;;;;;;0.07;72.38;100288.81;6165487;23;20306;-75
2021/11/29 07:25:26;;;;;;;8.13;7.03;;;;;;;0.08;73.05;100279.75;6166252;23;20068;-75
2021/11/29 07:27:52;;;;;;;9.13;7.53;;;;;;;0.09;72.43;100289.47;6138982;23;20005;-75
2021/11/29 07:30:21;;;;;;;9.30;8.23;;;;;;;0.06;73.15;100295.25;6137749;23;20033;-77
2021/11/29 07:32:47;;;;;;;9.77;7.88;;;;;;;0.05;73.15;100290.06;6161378;23;20033;-74
2021/11/29 07:35:13;;;;;;;9.50;8.10;;;;;;;0.09;73.54;100294.84;6161589;23;20032;-77
2021/11/29 07:37:45;;;;;;;13.77;8.93;;;;;;;0.10;73.12;100290.28;6159490;23;20029;-77
2021/11/29 07:40:11;;;;;;;8.68;7.80;;;;;;;0.11;73.14;100297.34;6111529;23;20010;-78
2021/11/29 07:42:37;;;;;;;9.57;8.30;;;;;;;0.05;73.72;100282.81;6136700;23;20009;-76
2021/11/29 07:45:11;;;;;;;10.75;7.70;;;;;;;0.03;73.54;100279.53;6162196;23;20416;-78
2021/11/29 07:47:37;;;;;;;9.50;8.60;;;;;;;0.10;73.59;100299.22;6161398;23;20024;-77
2021/11/29 07:50:03;;;;;;;10.07;8.45;;;;;;;0.09;74.17;100297.53;6161990;23;20072;-76
2021/11/29 07:52:34;;;;;;;10.02;8.20;;;;;;;0.04;74.07;100285.72;6161418;23;20017;-75
2021/11/29 07:55:06;;;;;;;11.88;8.13;;;;;;;0.06;73.66;100287.19;6158253;23;20017;-76
2021/11/29 07:57:32;;;;;;;11.20;7.97;;;;;;;0.24;74.23;100301.94;6160791;23;20001;-76
2021/11/29 08:00:00;;;;;;;8.43;7.63;;;;;;;0.21;73.99;100299.66;6160852;23;20005;-76
2021/11/29 08:02:26;;;;;;;8.18;7.45;;;;;;;0.34;74.07;100302.41;6161100;23;20033;-75
2021/11/29 08:04:53;;;;;;;8.82;7.40;;;;;;;0.45;74.40;100307.19;6161408;23;20016;-75
2021/11/29 08:07:18;;;;;;;9.63;7.18;;;;;;;0.48;74.71;100298.72;6136669;23;20013;-77
2021/11/29 08:09:44;;;;;;;10.82;8.05;;;;;;;0.56;73.54;100302.25;6162637;23;20008;-76
2021/11/29 08:12:11;;;;;;;10.07;8.07;;;;;;;0.61;74.77;100310.53;6159918;23;20017;-76
2021/11/29 08:14:39;;;;;;;11.38;8.00;;;;;;;0.65;73.79;100303.72;6160503;23;20064;-75
2021/11/29 08:17:08;;;;;;;7.82;7.30;;;;;;;0.69;74.31;100304.97;6157547;23;20072;-80
2021/11/29 08:19:34;;;;;;;6.38;5.85;;;;;;;0.92;74.34;100320.75;6136933;23;20064;-78
2021/11/29 08:21:59;;;;;;;7.43;6.45;;;;;;;1.06;73.98;100321.59;6112705;23;20013;-77
2021/11/29 08:24:25;;;;;;;7.80;6.95;;;;;;;1.18;73.83;100319.97;6136905;23;20420;-77
2021/11/29 08:26:50;;;;;;;5.50;5.00;;;;;;;1.24;73.84;100312.88;6160549;23;20009;-76
2021/11/29 08:29:16;;;;;;;5.68;4.60;;;;;;;1.36;72.90;100308.53;6158137;23;20005;-76
2021/11/29 08:31:42;;;;;;;4.03;3.75;;;;;;;1.60;73.35;100337.75;6161225;23;20005;-74
2021/11/29 08:34:18;;;;;;;3.22;3.03;;;;;;;1.62;73.41;100328.44;6163152;23;20012;-76
2021/11/29 08:36:43;;;;;;;4.07;3.67;;;;;;;1.85;73.22;100336.03;6161859;23;20017;-77
2021/11/29 08:39:09;;;;;;;4.95;4.65;;;;;;;1.87;72.61;100331.28;6162958;23;20440;-79
2021/11/29 08:41:34;;;;;;;4.80;4.45;;;;;;;1.99;72.29;100336.03;6163762;23;20002;-78
2021/11/29 08:44:03;;;;;;;3.17;2.72;;;;;;;2.08;71.99;100338.28;6162177;23;20372;-76
2021/11/29 08:46:47;;;;;;;2.72;2.63;;;;;;;2.18;72.40;100332.44;6160712;23;20017;-78
2021/11/29 08:49:19;;;;;;;2.38;2.28;;;;;;;2.23;72.12;100316.47;6160772;23;20417;-78
2021/11/29 08:51:46;;;;;;;1.88;1.77;;;;;;;2.51;72.13;100341.44;6162099;23;20001;-77
2021/11/29 08:54:13;;;;;;;3.47;3.25;;;;;;;2.64;71.40;100337.84;6164394;23;20005;-78
2021/11/29 08:56:39;;;;;;;3.40;3.10;;;;;;;2.81;71.37;100349.81;6134526;23;20032;-77
2021/11/29 08:59:04;;;;;;;3.95;3.75;;;;;;;3.03;71.28;100366.50;6161684;23;19997;-78
2021/11/29 09:01:30;;;;;;;2.75;2.65;;;;;;;3.13;70.98;100355.22;6135497;23;20005;-78
2021/11/29 09:03:58;;;;;;;2.22;2.13;;;;;;;3.37;70.71;100364.38;6161334;23;20010;-77
2021/11/29 09:06:26;;;;;;;1.70;1.60;;;;;;;3.63;70.67;100374.16;6162212;23;20016;-77
2021/11/29 09:08:52;;;;;;;5.35;4.95;;;;;;;3.75;70.29;100349.09;6160746;23;20068;-76
2021/11/29 09:11:19;;;;;;;4.85;4.47;;;;;;;3.93;69.81;100357.25;6163044;23;20360;-75
2021/11/29 09:13:47;;;;;;;10.60;6.38;;;;;;;4.08;69.01;100359.59;6162820;23;20006;-75
2021/11/29 09:16:15;;;;;;;4.60;4.25;;;;;;;4.16;68.66;100369.28;6161118;23;20005;-78
2021/11/29 09:18:41;;;;;;;4.50;4.18;;;;;;;4.24;68.51;100369.00;6159666;23;20012;-77
2021/11/29 09:21:10;;;;;;;6.05;5.55;;;;;;;4.52;67.52;100394.72;6161102;23;20002;-77
2021/11/29 09:23:46;;;;;;;;;;;;;;;;;;;;;
2021/11/29 09:26:13;;;;;;;6.30;5.45;;;;;;;5.09;66.18;100386.25;6161659;23;20036;-76
2021/11/29 09:28:38;;;;;;;5.88;5.45;;;;;;;5.49;65.01;100380.22;6161457;23;20056;-76
2021/11/29 09:31:04;;;;;;;5.97;4.97;;;;;;;5.96;63.95;100403.88;6161483;23;20002;-77
2021/11/29 09:33:33;;;;;;;6.03;5.38;;;;;;;6.14;62.40;100386.66;6164318;23;20012;-77
2021/11/29 09:36:02;;;;;;;5.32;5.03;;;;;;;6.35;62.13;100387.94;6162190;23;20017;-76
2021/11/29 09:38:27;;;;;;;5.03;4.72;;;;;;;6.78;61.96;100402.94;6164889;23;20095;-78
2021/11/29 09:41:14;;;;;;;6.07;4.53;;;;;;;6.99;61.18;100403.34;6165862;23;20013;-76
2021/11/29 09:43:40;;;;;;;4.47;4.28;;;;;;;7.18;60.42;100403.13;6141748;23;20016;-76
2021/11/29 09:46:09;;;;;;;4.65;4.30;;;;;;;7.72;60.39;100400.78;6165369;23;20016;-76
2021/11/29 09:48:35;;;;;;;4.90;4.60;;;;;;;8.43;59.24;100405.66;6166340;23;20005;-76
2021/11/29 09:51:00;;;;;;;4.85;4.25;;;;;;;8.75;57.21;100407.72;6189588;23;20063;-77
2021/11/29 09:53:30;;;;;;;4.32;3.97;;;;;;;8.59;56.86;100397.72;6192094;23;20016;-76
2021/11/29 09:56:00;;;;;;;3.60;3.40;;;;;;;8.62;57.35;100413.56;6140585;23;20005;-77
2021/11/29 09:58:29;;;;;;;3.30;3.00;;;;;;;8.72;56.91;100419.97;6166099;23;20009;-76
2021/11/29 10:00:59;;;;;;;4.10;3.88;;;;;;;8.76;55.80;100420.28;6163464;23;20001;-75
2021/11/29 10:03:30;;;;;;;4.70;4.40;;;;;;;8.55;54.83;100417.28;6166287;23;20008;-77
2021/11/29 10:05:56;;;;;;;5.78;5.38;;;;;;;8.14;54.35;100413.16;6142310;23;20099;-75
2021/11/29 10:08:45;;;;;;;4.55;4.28;;;;;;;7.80;53.90;100419.44;6165777;23;20009;-76
2021/11/29 10:11:20;;;;;;;5.25;4.78;;;;;;;7.39;54.53;100410.59;6165008;23;20001;-77
2021/11/29 10:14:05;;;;;;;4.50;4.10;;;;;;;7.28;53.45;100422.38;6167132;23;20009;-76
2021/11/29 10:16:34;;;;;;;5.38;5.07;;;;;;;6.95;53.24;100437.50;6191543;23;20083;-76
2021/11/29 10:19:02;;;;;;;5.25;4.85;;;;;;;6.51;54.51;100429.00;6166076;23;20088;-78
2021/11/29 10:21:30;;;;;;;4.28;3.97;;;;;;;6.14;54.82;100413.81;6165457;23;20056;-76
2021/11/29 10:24:10;;;;;;;4.25;4.05;;;;;;;6.09;55.61;100428.09;6166324;23;20009;-78
2021/11/29 10:26:36;;;;;;;5.07;4.78;;;;;;;5.81;56.24;100430.63;6169049;23;20001;-81
2021/11/29 10:29:13;;;;;;;4.45;4.05;;;;;;;5.58;56.47;100415.97;6119763;23;20047;-79
2021/11/29 10:31:41;;;;;;;8.60;4.63;;;;;;;5.63;56.50;100443.22;6167150;23;20000;-75
2021/11/29 10:34:19;;;;;;;4.13;3.92;;;;;;;5.58;57.05;100453.97;6198780;23;20011;-78
2021/11/29 10:36:54;;;;;;;5.13;4.72;;;;;;;5.56;58.11;100439.78;6198596;23;20084;-77
2021/11/29 10:39:23;;;;;;;6.20;4.40;;;;;;;5.59;56.83;100442.88;6179811;23;20012;-77
2021/11/29 10:41:55;;;;;;;4.38;4.18;;;;;;;5.50;57.82;100446.97;6207079;23;20009;-78
2021/11/29 10:44:25;;;;;;;4.53;4.10;;;;;;;5.38;57.69;100444.22;6205885;23;20009;-78
2021/11/29 10:47:05;;;;;;;;;;;;;;;;;;;;;
2021/11/29 10:49:38;;;;;;;4.88;4.55;;;;;;;5.32;58.12;100436.19;6193362;23;20028;-78
2021/11/29 10:52:17;;;;;;;4.35;4.05;;;;;;;5.39;58.13;100451.31;6195693;23;20007;-78
2021/11/29 10:54:43;;;;;;;4.35;4.05;;;;;;;5.47;58.36;100441.19;6167716;23;20028;-77
2021/11/29 10:57:15;;;;;;;4.95;4.60;;;;;;;5.75;57.93;100433.25;6190269;23;20028;-78
2021/11/29 10:59:49;;;;;;;5.18;4.82;;;;;;;6.34;57.49;100450.63;6141149;23;20013;-77
2021/11/29 11:02:20;;;;;;;4.22;4.03;;;;;;;6.80;56.08;100438.88;6191671;23;20001;-77
2021/11/29 11:04:48;;;;;;;3.35;3.15;;;;;;;7.09;54.43;100449.75;6165205;23;20015;-78
2021/11/29 11:07:21;;;;;;;6.65;3.88;;;;;;;7.16;54.91;100442.28;6167789;23;20444;-77
2021/11/29 11:09:57;;;;;;;3.92;3.72;;;;;;;7.11;53.78;100446.78;6165809;23;20009;-76
2021/11/29 11:12:29;;;;;;;4.38;4.07;;;;;;;6.98;53.61;100434.31;6167284;23;20447;-77
2021/11/29 11:15:03;;;;;;;4.70;4.40;;;;;;;6.97;54.59;100443.53;6194747;23;20367;-76
2021/11/29 11:17:32;;;;;;;3.63;3.38;;;;;;;6.89;54.79;100441.19;6200701;23;20214;-76
2021/11/29 11:20:03;;;;;;;3.25;3.05;;;;;;;6.76;54.19;100429.53;6194827;23;20013;-77
2021/11/29 11:22:41;;;;;;;3.33;3.13;;;;;;;6.87;54.35;100437.91;6165051;23;20008;-76
2021/11/29 11:25:12;;;;;;;4.30;4.10;;;;;;;6.93;54.89;100436.94;6165820;23;20008;-76
2021/11/29 11:27:37;;;;;;;3.90;3.70;;;;;;;7.10;54.27;100440.53;6165340;23;20446;-77
2021/11/29 11:30:22;;;;;;;3.30;3.10;;;;;;;7.54;55.11;100442.69;6166433;23;20033;-76
2021/11/29 11:32:48;;;;;;;3.17;3.03;;;;;;;7.95;54.47;100431.66;6165913;23;20012;-76
2021/11/29 11:35:36;;;;;;;3.63;3.33;;;;;;;8.41;54.30;100435.06;6165351;23;20005;-77
2021/11/29 11:38:15;;;;;;;3.47;3.28;;;;;;;8.51;52.15;100424.34;6192511;23;20044;-77
2021/11/29 11:40:43;;;;;;;3.10;3.00;;;;;;;8.56;52.00;100410.75;6165761;23;20001;-76
2021/11/29 11:43:12;;;;;;;3.35;3.20;;;;;;;8.83;52.07;100426.34;6164155;23;20343;-77
2021/11/29 11:45:42;;;;;;;2.92;2.72;;;;;;;9.28;52.40;100420.84;6192292;23;20088;-81
2021/11/29 11:48:11;;;;;;;3.92;3.40;;;;;;;9.78;50.91;100408.72;6192684;23;20001;-76